M I D A S
Marine Information and Data Acquisition System
Tripno 1498 of the Zeeleeuw from 2008-06-03 06:19:20 to 2008-06-03 13:06:08
Back to CruiseResearch ActivitiesStationsMapUnderway DataData graphs

EquipmentUnitsComment
TimeDGPSUTC
LatitudeDGPSDM.mWGS84
LongitudeDGPSDM.mWGS84
TemperatureSBE03/SBE38deg celciusITS90
ConductivitySBE21S/mITS90
SalinitySBE21 Practical Salinity Units
ChlorophylAChelsea fluorimeterg/lCalibrated in Aceton
Missing or incorrect values are displayed as -999
Sea surface data collected by the RV Zeeleeuw from 2008-06-03 06:22:14 to 2008-06-03 13:07:22
Time Latitude Longitude Temperature Conductivity Salinity ChlorophylA
2008-06-03 06:23:19 51°13.643 2°55.978 19.7395 0.066494 0.36772 -1.766697
2008-06-03 06:24:20 51°13.656 2°55.925 19.7173 0.066494 0.367707 -1.766697
2008-06-03 06:25:20 51°13.68 2°55.836 19.7375 0.066494 0.367674 -1.766697
2008-06-03 06:26:20 51°13.696 2°55.765 19.7419 0.066494 0.367654 -1.766697
2008-06-03 06:27:20 51°13.705 2°55.753 17.8613 0.588361 3.61872 4.606104
2008-06-03 06:28:20 51°13.72 2°55.733 17.5832 3.131126 22.936982 11.77986
2008-06-03 06:29:20 51°13.818 2°55.643 17.4729 3.100385 22.84611 12.337044
2008-06-03 06:30:20 51°13.945 2°55.549 17.3496 2.940692 21.568886 12.197748
2008-06-03 06:31:20 51°14.07 2°55.455 17.312 3.094383 22.885784 12.824581
2008-06-03 06:32:19 51°14.181 2°55.356 17.3605 2.996367 22.076275 12.720109
2008-06-03 06:33:20 51°14.294 2°55.198 17.3178 2.921549 21.452661 12.894229
2008-06-03 06:34:19 51°14.399 2°54.993 17.1247 3.101008 22.95702 14.461312
2008-06-03 06:35:20 51°14.542 2°54.76 16.8468 3.465827 26.121907 18.709846
2008-06-03 06:36:20 51°14.71 2°54.572 16.7079 3.657827 27.862778 18.083013
2008-06-03 06:37:20 51°14.876 2°54.387 16.6119 3.829791 29.436554 16.968644
2008-06-03 06:38:20 51°15.035 2°54.199 16.5594 3.897185 30.069623 16.898995
2008-06-03 06:39:20 51°15.19 2°54.001 16.5411 3.923212 30.320748 16.585579
2008-06-03 06:40:20 51°15.356 2°53.833 16.5149 3.936174 30.449519 14.70508
2008-06-03 06:41:19 51°15.521 2°53.67 16.4837 3.949759 30.5882 12.929053
2008-06-03 06:42:20 51°15.693 2°53.505 16.4359 3.959611 30.702387 12.197748
2008-06-03 06:43:20 51°15.866 2°53.354 16.3658 3.968738 30.820567 11.570915
2008-06-03 06:44:20 51°16.042 2°53.212 16.3072 3.97828 30.954646 10.735138
2008-06-03 06:45:20 51°16.219 2°53.078 16.2578 3.984503 31.052179 10.038657
2008-06-03 06:46:20 51°16.397 2°52.946 16.2176 3.990622 31.144027 9.342176
2008-06-03 06:47:20 51°16.579 2°52.833 16.1453 3.992282 31.190287 9.481472
2008-06-03 06:48:20 51°16.759 2°52.726 16.0914 3.994772 31.26819 9.028759
2008-06-03 06:49:20 51°16.931 2°52.601 16.0407 3.997884 31.33833 8.541223
2008-06-03 06:50:20 51°17.102 2°52.479 16.0033 4.001722 31.406642 7.91439
2008-06-03 06:51:20 51°17.28 2°52.394 15.9758 4.004938 31.462552 7.357205
2008-06-03 06:52:20 51°17.462 2°52.371 15.9642 4.008361 31.514551 6.6259
2008-06-03 06:53:20 51°17.644 2°52.354 15.9872 4.011264 31.539349 6.103539
2008-06-03 06:54:20 51°17.824 2°52.356 16.0184 4.01199 31.526897 5.790122
2008-06-03 06:55:20 51°17.989 2°52.457 16.0565 4.011056 31.490879 5.68565
2008-06-03 06:56:20 51°18.129 2°52.634 16.0914 4.008774 31.442498 5.581178
2008-06-03 06:57:19 51°18.238 2°52.854 16.1156 4.006803 31.401435 5.824946
2008-06-03 06:58:20 51°18.334 2°53.101 16.1295 4.005662 31.375392 5.964243
2008-06-03 06:59:20 51°18.43 2°53.342 16.137 4.005558 31.36549 5.999067
2008-06-03 07:00:20 51°18.521 2°53.592 16.1396 4.00618 31.366423 5.964243
2008-06-03 07:01:20 51°18.611 2°53.84 16.1465 4.006595 31.36683 6.033891
2008-06-03 07:02:20 51°18.694 2°54.095 16.1544 4.00701 31.365954 5.999067
2008-06-03 07:03:20 51°18.777 2°54.352 16.1663 4.00701 31.358892 5.999067
2008-06-03 07:04:20 51°18.861 2°54.608 16.1888 4.006284 31.339733 6.173187
2008-06-03 07:05:20 51°18.946 2°54.865 16.2079 4.005039 31.312231 6.486603
2008-06-03 07:06:20 51°19.035 2°55.118 16.2203 4.004001 31.289763 6.80002
2008-06-03 07:07:20 51°19.123 2°55.376 16.225 4.003898 31.28119 6.869668
2008-06-03 07:08:20 51°19.209 2°55.636 16.2262 4.003483 31.273746 7.008964
2008-06-03 07:09:20 51°19.295 2°55.895 16.2211 4.003275 31.272579 7.113436
2008-06-03 07:10:20 51°19.377 2°56.156 16.2146 4.003483 31.278217 7.217908
2008-06-03 07:11:20 51°19.443 2°56.43 16.2072 4.003275 31.282802 7.461677
2008-06-03 07:12:20 51°19.5 2°56.71 16.2115 4.001616 31.271549 7.984038
2008-06-03 07:13:19 51°19.569 2°56.975 16.2251 3.998194 31.236004 8.854639
2008-06-03 07:14:20 51°19.634 2°57.252 16.2383 3.99363 31.185455 9.72524
2008-06-03 07:15:20 51°19.686 2°57.535 16.2468 3.98803 31.127838 10.909258
2008-06-03 07:16:20 51°19.742 2°57.815 16.2528 3.980977 31.059549 12.267396
2008-06-03 07:17:20 51°19.8 2°58.092 16.2385 3.971125 30.973939 13.938951
2008-06-03 07:18:20 51°19.855 2°58.367 16.2086 3.957333 30.868632 15.401561
2008-06-03 07:19:20 51°19.91 2°58.64 16.1608 3.942504 30.767487 16.550755
2008-06-03 07:20:20 51°19.955 2°58.919 16.1159 3.92975 30.688666 16.968644
2008-06-03 07:21:20 51°20.005 2°59.196 16.0687 3.918448 30.624881 16.724875
2008-06-03 07:22:20 51°20.063 2°59.47 16.0304 3.90922 30.579687 16.341811
2008-06-03 07:23:20 51°20.131 2°59.737 16.0049 3.902688 30.551017 15.99357
2008-06-03 07:24:20 51°20.204 2°59.999 15.9942 3.898644 30.532087 15.923922
2008-06-03 07:25:20 51°20.268 3°0.264 15.9916 3.896778 30.522718 15.889098
2008-06-03 07:26:20 51°20.329 3°0.533 15.9937 3.896259 30.516317 15.749802
2008-06-03 07:27:20 51°20.386 3°0.801 16.0007 3.896156 30.512904 15.506033
2008-06-03 07:28:20 51°20.443 3°1.071 16.0002 3.896156 30.510396 15.366737
2008-06-03 07:29:20 51°20.493 3°1.346 16.0026 3.896467 30.511226 14.983672
2008-06-03 07:30:20 51°20.54 3°1.627 16.0047 3.896674 30.513034 14.565784
2008-06-03 07:31:20 51°20.593 3°1.904 16.0036 3.896881 30.514841 14.391664
2008-06-03 07:32:20 51°20.654 3°2.173 15.9973 3.897296 30.520965 14.391664
2008-06-03 07:33:20 51°20.717 3°2.443 15.9946 3.900718 30.555188 13.869303
2008-06-03 07:34:20 51°20.786 3°2.71 15.9843 3.90217 30.571615 14.252367
2008-06-03 07:35:20 51°20.858 3°2.975 15.9734 3.903414 30.588755 15.088145
2008-06-03 07:36:20 51°20.927 3°3.238 15.9632 3.907251 30.631671 14.600608
2008-06-03 07:37:20 51°20.995 3°3.501 15.9555 3.911191 30.670476 13.346942
2008-06-03 07:38:20 51°21.061 3°3.766 15.9525 3.911917 30.683757 12.650461
2008-06-03 07:39:20 51°21.13 3°4.027 15.9526 3.911606 30.682304 12.511165
2008-06-03 07:40:20 51°21.196 3°4.289 15.9499 3.912021 30.686557 12.406692
2008-06-03 07:41:20 51°21.262 3°4.556 15.9473 3.914198 30.707469 12.058452
2008-06-03 07:42:20 51°21.334 3°4.818 15.9462 3.916169 30.725941 12.197748
2008-06-03 07:43:20 51°21.408 3°5.082 15.9424 3.917206 30.735632 11.919156
2008-06-03 07:44:20 51°21.472 3°5.355 15.938 3.91762 30.744318 12.371868
2008-06-03 07:45:20 51°21.538 3°5.631 15.9272 3.918969 30.758629 11.919156
2008-06-03 07:46:20 51°21.609 3°5.9 15.9183 3.920213 30.777107 12.476341
2008-06-03 07:47:20 51°21.68 3°6.166 15.9015 3.922391 30.806294 12.093276
2008-06-03 07:48:20 51°21.753 3°6.432 15.8932 3.923428 30.82616 11.849508
2008-06-03 07:49:20 51°21.824 3°6.701 15.8826 3.922702 30.826801 11.919156
2008-06-03 07:50:20 51°21.879 3°6.98 15.8746 3.923013 30.835881 11.919156
2008-06-03 07:51:20 51°21.917 3°7.267 15.8743 3.927161 30.875368 11.536091
2008-06-03 07:52:20 51°21.95 3°7.559 15.8749 3.924154 30.850318 11.710211
2008-06-03 07:53:20 51°21.972 3°7.853 15.8762 3.922287 30.83398 11.466443
2008-06-03 07:54:20 51°21.992 3°8.146 15.8759 3.920939 30.821546 11.640563
2008-06-03 07:55:20 51°22.004 3°8.402 15.878 3.921665 30.828534 11.570915
2008-06-03 07:56:20 51°22.013 3°8.651 15.8856 3.922391 30.831708 11.501267
2008-06-03 07:57:20 51°22.022 3°8.925 15.8889 3.91928 30.799402 11.849508
2008-06-03 07:58:20 51°22.032 3°9.225 15.9276 3.910674 30.712083 12.371868
2008-06-03 07:59:20 51°22.069 3°9.521 15.9471 3.899371 30.588708 12.511165
2008-06-03 08:00:20 51°22.108 3°9.818 15.9512 3.89149 30.510489 12.894229
2008-06-03 08:01:20 51°22.145 3°10.119 15.9523 3.889624 30.493576 13.033525
2008-06-03 08:02:20 51°22.184 3°10.422 15.9671 3.885476 30.451124 13.312118
2008-06-03 08:03:20 51°22.216 3°10.734 15.9796 3.880914 30.401329 13.41659
2008-06-03 08:04:20 51°22.258 3°11.049 16.0024 3.873449 30.321919 13.764831
2008-06-03 08:05:20 51°22.309 3°11.359 16.0197 3.869923 30.274414 14.113071
2008-06-03 08:06:20 51°22.368 3°11.663 16.0169 3.86816 30.254101 13.938951
2008-06-03 08:07:20 51°22.407 3°11.976 16.0078 3.868886 30.261038 13.834479
2008-06-03 08:08:20 51°22.462 3°12.28 15.9999 3.872101 30.299591 13.312118
2008-06-03 08:09:20 51°22.512 3°12.581 16.0012 3.8749 30.325214 13.24247
2008-06-03 08:10:20 51°22.557 3°12.881 15.9969 3.877596 30.351186 13.172822
2008-06-03 08:11:20 51°22.599 3°13.103 16.0084 3.873863 30.318054 13.346942
2008-06-03 08:12:20 51°22.636 3°13.189 16.0215 3.871167 30.284622 12.685285
2008-06-03 08:13:20 51°22.647 3°13.197 16.0392 3.866605 30.22443 11.814684
2008-06-03 08:14:20 51°22.653 3°13.192 16.0417 3.865983 30.212819 11.77986
2008-06-03 08:15:20 51°22.659 3°13.183 16.0457 3.866605 30.215748 11.327147
2008-06-03 08:16:20 51°22.656 3°13.176 16.0465 3.866916 30.217833 10.944082
2008-06-03 08:17:20 51°22.638 3°13.169 16.0436 3.867642 30.224763 11.257499
2008-06-03 08:18:20 51°22.625 3°13.159 16.0541 3.868678 30.227577 10.978906
2008-06-03 08:19:20 51°22.616 3°13.157 16.0554 3.869197 30.230224 10.874434
2008-06-03 08:20:20 51°22.61 3°13.151 16.0594 3.869404 30.228306 10.66549
2008-06-03 08:21:20 51°22.608 3°13.142 16.0551 3.868782 30.222279 11.01373
2008-06-03 08:22:20 51°22.609 3°13.139 16.0671 3.868056 30.216591 10.66549
2008-06-03 08:23:20 51°22.612 3°13.136 16.0589 3.868574 30.211185 10.282425
2008-06-03 08:24:20 51°22.616 3°13.134 16.0569 3.867745 30.212648 10.49137
2008-06-03 08:25:20 51°22.623 3°13.132 16.0507 3.866812 30.205777 10.526194
2008-06-03 08:26:20 51°22.628 3°13.129 16.0508 3.865983 30.204143 10.66549
2008-06-03 08:27:20 51°22.633 3°13.131 16.0417 3.865672 30.20082 10.561018
2008-06-03 08:28:20 51°22.642 3°13.124 16.0411 3.865361 30.202452 10.456545
2008-06-03 08:29:20 51°22.649 3°13.115 16.0402 3.865879 30.209438 10.352073
2008-06-03 08:30:20 51°22.656 3°13.103 16.032 3.866501 30.217326 10.735138
2008-06-03 08:31:20 51°22.675 3°13.094 16.0308 3.866398 30.219525 10.66549
2008-06-03 08:32:20 51°22.703 3°13.162 16.0267 3.867227 30.231701 12.058452
2008-06-03 08:33:20 51°22.679 3°13.284 16.0292 3.867123 30.226457 11.640563
2008-06-03 08:34:20 51°22.626 3°13.328 16.0236 3.866086 30.21682 11.536091
2008-06-03 08:35:17 51°22.612 3°13.326 16.0132 3.864531 30.210116 11.222675
2008-06-03 08:36:16 51°22.608 3°13.321 15.9973 3.865465 30.229401 12.859405
2008-06-03 08:37:16 51°22.605 3°13.317 16.0057 3.865672 30.236794 12.476341
2008-06-03 08:38:16 51°22.6 3°13.314 16.0179 3.864843 30.223988 11.570915
2008-06-03 08:39:17 51°22.595 3°13.314 16.0323 3.864842 30.213441 10.108305
2008-06-03 08:40:16 51°22.588 3°13.32 16.0296 3.865257 30.208988 9.829713
2008-06-03 08:41:16 51°22.551 3°13.323 16.0408 3.865361 30.209269 10.630666
2008-06-03 08:42:16 51°22.52 3°13.253 16.0442 3.865361 30.204311 12.1281
2008-06-03 08:43:16 51°22.542 3°13.173 16.044 3.865361 30.199355 11.466443
2008-06-03 08:44:16 51°22.56 3°13.142 16.0315 3.865879 30.209438 11.640563
2008-06-03 08:45:16 51°22.565 3°13.134 16.0193 3.866812 30.224992 11.01373
2008-06-03 08:46:16 51°22.57 3°13.129 16.0247 3.86816 30.240439 10.944082
2008-06-03 08:47:16 51°22.574 3°13.125 16.0467 3.868056 30.23147 10.66549
2008-06-03 08:48:16 51°22.577 3°13.121 16.0589 3.867538 30.214563 10.247601
2008-06-03 08:49:16 51°22.579 3°13.119 16.0518 3.867123 30.210959 10.595842
2008-06-03 08:50:16 51°22.581 3°13.117 16.0608 3.867019 30.204482 10.944082
2008-06-03 08:51:16 51°22.586 3°13.116 16.0594 3.867227 30.205665 10.769962
2008-06-03 08:52:16 51°22.601 3°13.052 16.0358 3.866605 30.213889 12.093276
2008-06-03 08:53:16 51°22.573 3°12.854 16.0341 3.866397 30.213325 11.95398
2008-06-03 08:54:16 51°22.538 3°12.557 16.0312 3.869301 30.237947 11.327147
2008-06-03 08:55:17 51°22.503 3°12.248 16.0285 3.872204 30.268159 11.814684
2008-06-03 08:56:16 51°22.47 3°11.949 16.0187 3.874485 30.290486 12.093276
2008-06-03 08:57:16 51°22.459 3°11.686 15.9983 3.878114 30.330772 13.24247
2008-06-03 08:58:16 51°22.458 3°11.514 16.0172 3.880084 30.354773 13.695182
2008-06-03 08:59:16 51°22.475 3°11.38 16.0191 3.88195 30.363539 13.033525
2008-06-03 09:00:17 51°22.502 3°11.314 16.0282 3.884957 30.387218 12.406692
2008-06-03 09:01:16 51°22.503 3°11.312 15.9702 3.887653 30.413182 12.894229
2008-06-03 09:02:16 51°22.506 3°11.313 15.9472 3.896156 30.526079 13.24247
2008-06-03 09:03:16 51°22.509 3°11.316 15.9846 3.899163 30.560472 12.824581
2008-06-03 09:04:16 51°22.514 3°11.322 16.0049 3.890764 30.455272 12.824581
2008-06-03 09:05:16 51°22.549 3°11.297 16.0331 3.889001 30.429915 12.650461
2008-06-03 09:06:16 51°22.531 3°11.181 16.039 3.886305 30.386476 12.30222
2008-06-03 09:07:16 51°22.431 3°10.958 16.0029 3.889519 30.42381 13.521062
2008-06-03 09:08:16 51°22.316 3°10.693 15.9747 3.893874 30.47799 13.451414
2008-06-03 09:09:16 51°22.194 3°10.436 15.9563 3.898748 30.538011 13.277294
2008-06-03 09:10:16 51°22.085 3°10.165 16.002 3.90414 30.589425 12.511165
2008-06-03 09:11:16 51°21.978 3°9.893 15.9905 3.893667 30.476183 12.650461
2008-06-03 09:12:16 51°21.869 3°9.623 15.9984 3.892941 30.479877 12.615637
2008-06-03 09:13:16 51°21.761 3°9.351 15.9711 3.893045 30.477649 12.371868
2008-06-03 09:14:16 51°21.654 3°9.078 15.9709 3.894289 30.503532 12.650461
2008-06-03 09:15:16 51°21.537 3°8.813 15.9468 3.899889 30.564289 12.929053
2008-06-03 09:16:16 51°21.421 3°8.549 15.923 3.901963 30.594966 12.685285
2008-06-03 09:17:16 51°21.305 3°8.285 15.903 3.907044 30.655086 12.998701
2008-06-03 09:18:16 51°21.187 3°8.021 15.9047 3.908496 30.674081 12.232572
2008-06-03 09:19:16 51°21.07 3°7.759 15.895 3.910155 30.69553 12.371868
2008-06-03 09:20:16 51°20.951 3°7.497 15.9216 3.908703 30.682844 12.267396
2008-06-03 09:21:16 51°20.818 3°7.251 15.9303 3.905385 30.633027 12.093276
2008-06-03 09:22:16 51°20.687 3°7.005 15.9293 3.904348 30.623343 12.232572
2008-06-03 09:23:16 51°20.554 3°6.759 15.9307 3.900304 30.584892 12.197748
2008-06-03 09:24:16 51°20.422 3°6.513 15.9352 3.896882 30.556285 12.685285
2008-06-03 09:25:17 51°20.284 3°6.273 15.9523 3.895742 30.541931 12.894229
2008-06-03 09:26:16 51°20.161 3°6.027 15.96 3.898645 30.557206 12.058452
2008-06-03 09:27:16 51°20.052 3°5.758 15.9615 3.901237 30.571019 12.30222
2008-06-03 09:28:16 51°19.945 3°5.49 15.9673 3.904555 30.598704 12.615637
2008-06-03 09:29:16 51°19.84 3°5.22 15.9708 3.904866 30.597643 12.371868
2008-06-03 09:30:16 51°19.736 3°4.95 15.9737 3.904762 30.592965 12.754933
2008-06-03 09:31:16 51°19.634 3°4.678 15.9778 3.90331 30.579676 13.137998
2008-06-03 09:32:17 51°19.528 3°4.405 15.9885 3.902584 30.569577 12.998701
2008-06-03 09:33:16 51°19.427 3°4.139 15.99 3.901859 30.555712 12.267396
2008-06-03 09:34:16 51°19.324 3°3.87 15.9954 3.901858 30.551946 12.058452
2008-06-03 09:35:16 51°19.221 3°3.6 16.0023 3.903725 30.565074 11.988804
2008-06-03 09:36:16 51°19.119 3°3.333 16.0006 3.904451 30.569516 12.337044
2008-06-03 09:37:16 51°19.019 3°3.065 16.0106 3.902688 30.553527 13.06835
2008-06-03 09:38:16 51°18.918 3°2.798 16.0218 3.90248 30.538549 12.232572
2008-06-03 09:39:16 51°18.817 3°2.532 16.024 3.906732 30.571817 12.406692
2008-06-03 09:40:16 51°18.716 3°2.265 16.0382 3.908805 30.587998 12.441517
2008-06-03 09:41:16 51°18.617 3°1.997 16.0394 3.911605 30.60171 12.162924
2008-06-03 09:42:16 51°18.525 3°1.721 16.0452 3.913886 30.616553 11.849508
2008-06-03 09:43:17 51°18.428 3°1.443 16.0457 3.91596 30.635242 12.30222
2008-06-03 09:44:16 51°18.331 3°1.177 16.0472 3.916271 30.637322 12.511165
2008-06-03 09:45:16 51°18.232 3°0.908 16.0462 3.916478 30.6385 12.232572
2008-06-03 09:46:16 51°18.131 3°0.641 16.0485 3.9171 30.642033 12.232572
2008-06-03 09:47:16 51°18.029 3°0.377 16.0332 3.916064 30.636145 13.137998
2008-06-03 09:48:17 51°17.925 3°0.111 16.0399 3.912227 30.612153 14.809552
2008-06-03 09:49:16 51°17.825 2°59.855 16.0323 3.911294 30.598373 15.401561
2008-06-03 09:50:16 51°17.723 2°59.594 16.0449 3.908598 30.576151 15.018497
2008-06-03 09:51:16 51°17.622 2°59.334 16.0443 3.909116 30.572512 15.122969
2008-06-03 09:52:16 51°17.521 2°59.077 16.0421 3.905694 30.546484 16.306987
2008-06-03 09:53:16 51°17.421 2°58.825 16.0529 3.901236 30.508298 18.013365
2008-06-03 09:54:17 51°17.331 2°58.558 16.0713 3.900717 30.493777 18.152661
2008-06-03 09:55:16 51°17.259 2°58.291 16.099 3.902272 30.491057 19.580448
2008-06-03 09:56:16 51°17.186 2°58.022 16.1078 3.906938 30.506637 20.137632
2008-06-03 09:57:17 51°17.112 2°57.75 16.1721 3.909841 30.526249 21.008234
2008-06-03 09:58:16 51°17.056 2°57.483 16.2236 3.919691 30.55747 20.485873
2008-06-03 09:59:17 51°17.029 2°57.189 16.2065 3.92612 30.590779 20.555521
2008-06-03 10:00:16 51°16.96 2°56.927 16.2675 3.926742 30.594303 20.276929
2008-06-03 10:01:16 51°16.866 2°56.678 16.3351 3.938874 30.66015 19.197383
2008-06-03 10:02:16 51°16.79 2°56.415 16.367 3.953391 30.724665 18.291958
2008-06-03 10:03:16 51°16.73 2°56.142 16.3438 3.962931 30.806622 19.650096
2008-06-03 10:04:17 51°16.666 2°55.868 16.3726 3.965109 30.832999 19.510799
2008-06-03 10:05:16 51°16.597 2°55.608 16.3913 3.970709 30.858285 18.431254
2008-06-03 10:06:16 51°16.522 2°55.349 16.4223 3.975375 30.894289 18.291958
2008-06-03 10:07:16 51°16.445 2°55.095 16.3839 3.970293 30.828388 18.640198
2008-06-03 10:08:17 51°16.371 2°54.835 16.3662 3.962516 30.779879 19.162559
2008-06-03 10:09:16 51°16.312 2°54.578 16.3822 3.959405 30.764841 18.953615
2008-06-03 10:10:16 51°16.293 2°54.452 16.4292 3.958679 30.744191 19.092911
2008-06-03 10:11:16 51°16.289 2°54.404 16.4461 3.962308 30.744367 18.500902
2008-06-03 10:12:16 51°16.269 2°54.382 16.4569 3.967078 30.771236 17.978541
2008-06-03 10:13:16 51°16.26 2°54.329 16.4642 3.970396 30.791789 18.013365
2008-06-03 10:14:16 51°16.249 2°54.294 16.4658 3.974856 30.827186 17.665125
2008-06-03 10:15:16 51°16.258 2°54.297 16.4746 3.977345 30.844311 17.316884
2008-06-03 10:16:16 51°16.273 2°54.314 16.4728 3.978278 30.849872 16.864171
2008-06-03 10:17:16 51°16.288 2°54.339 16.4727 3.978589 30.85381 16.481107
2008-06-03 10:18:16 51°16.305 2°54.371 16.4723 3.979004 30.856143 16.237338
2008-06-03 10:19:16 51°16.322 2°54.409 16.472 3.979419 30.858475 15.958746
2008-06-03 10:20:16 51°16.339 2°54.453 16.464 3.979522 30.860621 15.575681
2008-06-03 10:21:17 51°16.356 2°54.501 16.438 3.980767 30.883261 15.645329
2008-06-03 10:22:16 51°16.371 2°54.551 16.4117 3.982945 30.920259 15.122969
2008-06-03 10:23:16 51°16.387 2°54.604 16.4604 3.983879 30.94214 15.053321
2008-06-03 10:24:16 51°16.402 2°54.658 16.4868 3.981804 30.887214 15.784626
2008-06-03 10:25:16 51°16.417 2°54.712 16.4832 3.982115 30.869883 14.252367
2008-06-03 10:26:16 51°16.452 2°54.763 16.4933 3.982841 30.8699 14.391664
2008-06-03 10:27:16 51°16.483 2°54.715 16.509 3.983048 30.868566 16.063218
2008-06-03 10:28:16 51°16.455 2°54.683 16.498 3.98647 30.889357 15.401561
2008-06-03 10:29:17 51°16.423 2°54.642 16.5172 3.986159 30.8948 15.749802
2008-06-03 10:30:17 51°16.399 2°54.585 16.5034 3.985641 30.877822 15.645329
2008-06-03 10:31:17 51°16.35 2°54.476 16.4795 3.984604 30.88012 15.471209
2008-06-03 10:32:16 51°16.296 2°54.383 16.4883 3.985122 30.897731 14.600608
2008-06-03 10:33:17 51°16.257 2°54.323 16.506 3.988441 30.950217 13.730007
2008-06-03 10:34:16 51°16.253 2°54.309 16.5453 3.992278 30.936986 11.153027
2008-06-03 10:35:16 51°16.26 2°54.32 16.5332 3.995181 30.935764 11.187851
2008-06-03 10:36:16 51°16.261 2°54.34 16.5411 3.994145 30.948091 13.312118
2008-06-03 10:37:17 51°16.257 2°54.355 16.5644 3.995181 30.934513 12.197748
2008-06-03 10:38:17 51°16.255 2°54.358 16.5587 3.996218 30.93533 11.710211
2008-06-03 10:39:16 51°16.26 2°54.356 16.5359 3.99653 30.944266 11.501267
2008-06-03 10:40:16 51°16.267 2°54.348 16.5475 3.996426 30.957139 11.431619
2008-06-03 10:41:16 51°16.275 2°54.341 16.5172 3.99933 30.978441 11.466443
2008-06-03 10:42:16 51°16.28 2°54.334 16.4322 3.998397 30.994832 11.988804
2008-06-03 10:43:16 51°16.278 2°54.331 16.4873 3.99902 31.056791 10.874434
2008-06-03 10:44:17 51°16.275 2°54.333 16.5051 4.001197 31.022784 10.700314
2008-06-03 10:45:17 51°16.272 2°54.334 16.4975 4.00379 31.04581 10.456545
2008-06-03 10:46:17 51°16.273 2°54.337 16.4881 4.005138 31.065005 10.421721
2008-06-03 10:47:17 51°16.274 2°54.341 16.4655 4.006176 31.082781 10.526194
2008-06-03 10:48:16 51°16.275 2°54.346 16.4514 4.007006 31.103185 10.561018
2008-06-03 10:49:17 51°16.275 2°54.347 16.4244 4.008769 31.131686 10.212777
2008-06-03 10:50:16 51°16.272 2°54.339 16.4074 4.010532 31.166536 9.864537
2008-06-03 10:51:16 51°16.267 2°54.332 16.2734 4.017378 31.260715 7.949214
2008-06-03 10:52:17 51°16.266 2°54.339 16.2505 4.018002 31.347034 7.078612
2008-06-03 10:53:16 51°16.269 2°54.354 16.2389 4.018313 31.361886 6.834844
2008-06-03 10:54:16 51°16.27 2°54.369 16.2102 4.017795 31.373372 6.765196
2008-06-03 10:55:16 51°16.273 2°54.391 16.2023 4.016862 31.384464 6.730372
2008-06-03 10:56:16 51°16.28 2°54.429 16.1886 4.017691 31.396176 6.556251
2008-06-03 10:57:16 51°16.284 2°54.469 16.1681 4.016447 31.400731 6.521427
2008-06-03 10:58:16 51°16.235 2°54.457 16.1309 4.014996 31.411191 6.939316
2008-06-03 10:59:16 51°16.185 2°54.293 16.0789 4.013025 31.418433 7.322381
2008-06-03 11:00:16 51°16.116 2°54.063 16.1372 4.0123 31.424966 7.043788
2008-06-03 11:01:16 51°16.044 2°53.819 16.1163 4.01344 31.421409 6.765196
2008-06-03 11:02:16 51°15.971 2°53.575 16.1266 4.013544 31.422314 6.521427
2008-06-03 11:03:16 51°15.907 2°53.324 16.075 4.014581 31.43265 6.660724
2008-06-03 11:04:16 51°15.831 2°53.082 16.0521 4.014167 31.468336 6.97414
2008-06-03 11:05:16 51°15.741 2°52.852 16.059 4.013545 31.474516 7.252733
2008-06-03 11:06:16 51°15.65 2°52.623 16.1095 4.012404 31.455512 7.670621
2008-06-03 11:07:16 51°15.561 2°52.394 16.1569 4.00981 31.400025 7.91439
2008-06-03 11:08:16 51°15.47 2°52.168 16.2232 4.006387 31.323977 8.26263
2008-06-03 11:09:16 51°15.376 2°51.946 16.1886 4.004105 31.2632 8.576047
2008-06-03 11:10:16 51°15.283 2°51.72 16.1659 4.004313 31.291194 8.471574
2008-06-03 11:11:16 51°15.192 2°51.492 16.1646 4.003794 31.300109 8.401926
2008-06-03 11:12:16 51°15.104 2°51.257 16.1595 4.002757 31.296193 8.471574
2008-06-03 11:13:16 51°15.014 2°51.022 16.1543 4.002135 31.297811 8.541223
2008-06-03 11:14:16 51°14.922 2°50.787 16.1673 4.001202 31.289677 8.784991
2008-06-03 11:15:16 51°14.826 2°50.554 16.1908 4.000164 31.26913 9.028759
2008-06-03 11:16:16 51°14.735 2°50.313 16.2009 3.998401 31.235257 9.411824
2008-06-03 11:17:16 51°14.641 2°50.076 16.1932 3.997675 31.224473 9.481472
2008-06-03 11:18:16 51°14.544 2°49.842 16.192 3.999646 31.248005 9.481472
2008-06-03 11:19:16 51°14.448 2°49.606 16.1995 3.999749 31.246993 9.411824
2008-06-03 11:20:16 51°14.361 2°49.361 16.1911 4.00006 31.245872 9.342176
2008-06-03 11:21:16 51°14.266 2°49.125 16.1703 4.00172 31.268618 9.063583
2008-06-03 11:22:16 51°14.17 2°48.884 16.1334 4.003691 31.306886 8.819815
2008-06-03 11:23:16 51°14.077 2°48.644 16.1138 4.007528 31.366625 8.401926
2008-06-03 11:24:16 51°13.984 2°48.403 16.11 4.009499 31.393452 8.053686
2008-06-03 11:25:16 51°13.891 2°48.163 16.1133 4.009707 31.396548 8.018862
2008-06-03 11:26:16 51°13.799 2°47.921 16.1084 4.01064 31.404693 8.053686
2008-06-03 11:27:16 51°13.713 2°47.669 16.1038 4.011677 31.416961 7.775093
2008-06-03 11:28:16 51°13.619 2°47.425 16.0981 4.01344 31.434924 7.287557
2008-06-03 11:29:16 51°13.533 2°47.172 16.0838 4.016656 31.469437 7.078612
2008-06-03 11:30:16 51°13.442 2°46.925 16.0636 4.021531 31.529449 5.999067
2008-06-03 11:31:16 51°13.346 2°46.683 16.0736 4.023916 31.552883 5.198113
2008-06-03 11:32:16 51°13.243 2°46.449 16.0763 4.024746 31.558193 5.093641
2008-06-03 11:33:16 51°13.137 2°46.216 16.0735 4.027339 31.578914 4.954345
2008-06-03 11:34:16 51°13.041 2°45.971 16.0681 4.031591 31.618028 4.327512
2008-06-03 11:35:16 51°12.944 2°45.725 16.0482 4.037503 31.678812 3.596207
2008-06-03 11:36:16 51°12.841 2°45.491 16.046 4.043519 31.740552 3.004198
2008-06-03 11:37:16 51°12.748 2°45.244 16.0439 4.047253 31.777797 2.899726
2008-06-03 11:38:16 51°12.657 2°44.996 16.0505 4.052025 31.820875 2.899726
2008-06-03 11:39:16 51°12.563 2°44.751 16.0773 4.057729 31.860369 2.655957
2008-06-03 11:40:16 51°12.491 2°44.484 16.1049 4.065508 31.910158 2.481837
2008-06-03 11:41:16 51°12.422 2°44.215 16.1324 4.076088 31.978523 2.238069
2008-06-03 11:42:16 51°12.344 2°43.961 16.1675 4.084179 32.023087 2.516661
2008-06-03 11:43:16 51°12.251 2°43.722 16.1878 4.086771 32.023483 2.586309
2008-06-03 11:44:16 51°12.175 2°43.468 16.2013 4.088431 32.023581 2.621133
2008-06-03 11:45:16 51°12.151 2°43.185 16.2054 4.09092 32.03551 2.586309
2008-06-03 11:46:16 51°12.112 2°42.91 16.2075 4.092995 32.049703 2.447013
2008-06-03 11:47:16 51°12.015 2°42.682 16.1976 4.095692 32.075882 2.307717
2008-06-03 11:48:16 51°11.885 2°42.493 16.1845 4.098078 32.103942 2.377365
2008-06-03 11:49:16 51°11.755 2°42.303 16.1945 4.101294 32.135986 2.481837
2008-06-03 11:50:16 51°11.626 2°42.107 16.1853 4.10119 32.131138 2.655957
2008-06-03 11:51:16 51°11.503 2°41.898 16.1711 4.103472 32.160288 2.655957
2008-06-03 11:52:16 51°11.379 2°41.693 16.1599 4.105651 32.190524 2.551485
2008-06-03 11:53:16 51°11.25 2°41.491 16.1429 4.107415 32.215834 2.516661
2008-06-03 11:54:16 51°11.111 2°41.308 16.1255 4.109386 32.245619 2.377365
2008-06-03 11:55:16 51°10.972 2°41.122 16.0999 4.111979 32.283525 2.377365
2008-06-03 11:56:16 51°10.836 2°40.931 16.0772 4.115818 32.337685 2.412189
2008-06-03 11:57:16 51°10.699 2°40.741 16.0634 4.118723 32.381074 2.447013
2008-06-03 11:58:16 51°10.552 2°40.568 16.0663 4.118827 32.389957 2.447013
2008-06-03 11:59:16 51°10.41 2°40.384 16.0688 4.117271 32.371654 2.516661
2008-06-03 12:00:16 51°10.27 2°40.201 16.084 4.116026 32.362061 2.551485
2008-06-03 12:01:16 51°10.186 2°40.087 16.1202 4.111876 32.297833 2.447013
2008-06-03 12:02:16 51°10.146 2°40.055 16.1274 4.10949 32.262379 2.447013
2008-06-03 12:03:16 51°10.107 2°40.045 16.1392 4.109075 32.250157 2.551485
2008-06-03 12:04:16 51°10.083 2°40.058 16.1432 4.109801 32.249251 2.551485
2008-06-03 12:05:16 51°10.069 2°40.093 16.1436 4.111149 32.259077 2.481837
2008-06-03 12:06:16 51°10.061 2°40.134 16.1443 4.111772 32.263865 2.447013
2008-06-03 12:07:16 51°10.057 2°40.176 16.144 4.11229 32.268406 2.377365
2008-06-03 12:08:16 51°10.055 2°40.217 16.1448 4.112083 32.265929 2.272893
2008-06-03 12:09:16 51°10.029 2°40.208 16.1492 4.112083 32.264609 2.447013
2008-06-03 12:10:16 51°10.068 2°40.162 16.1477 4.11229 32.263783 2.447013
2008-06-03 12:11:16 51°10.159 2°40.248 16.1423 4.112394 32.267993 2.551485
2008-06-03 12:12:16 51°10.317 2°40.429 16.1297 4.111875 32.264113 2.76043
2008-06-03 12:13:16 51°10.482 2°40.68 16.0858 4.111979 32.279558 2.412189
2008-06-03 12:14:16 51°10.633 2°40.953 16.0738 4.116026 32.352105 2.412189
2008-06-03 12:15:16 51°10.78 2°41.235 16.0718 4.117271 32.367006 2.412189
2008-06-03 12:16:16 51°10.926 2°41.518 16.0688 4.118308 32.378762 2.342541
2008-06-03 12:17:16 51°11.072 2°41.8 16.0746 4.119345 32.388528 2.238069
2008-06-03 12:18:16 51°11.203 2°42.097 16.0926 4.118827 32.377335 2.272893
2008-06-03 12:19:16 51°11.325 2°42.406 16.1148 4.116855 32.34678 2.203245
2008-06-03 12:20:16 51°11.414 2°42.739 16.1338 4.11395 32.301453 2.203245
2008-06-03 12:21:16 51°11.466 2°43.092 16.1353 4.112705 32.277986 2.203245
2008-06-03 12:22:16 51°11.526 2°43.441 16.1479 4.112083 32.269232 1.889828
2008-06-03 12:23:16 51°11.586 2°43.788 16.1597 4.109593 32.238196 1.959476
2008-06-03 12:24:16 51°11.641 2°44.138 16.1807 4.105132 32.187962 2.098773
2008-06-03 12:25:16 51°11.694 2°44.488 16.2019 4.100153 32.126669 2.133597
2008-06-03 12:26:16 51°11.74 2°44.843 16.2095 4.097041 32.088319 2.098773
2008-06-03 12:27:16 51°11.783 2°45.2 16.2143 4.088949 32.008486 2.098773
2008-06-03 12:28:16 51°11.84 2°45.552 16.2366 4.079302 31.915148 2.342541
2008-06-03 12:29:16 51°11.895 2°45.902 16.2099 4.064054 31.784092 2.725606
2008-06-03 12:30:16 51°11.942 2°46.256 16.2496 4.05669 31.720527 3.10867
2008-06-03 12:31:16 51°11.993 2°46.611 16.2732 4.056586 31.691155 3.247966
2008-06-03 12:32:16 51°12.042 2°46.969 16.2876 4.056378 31.670618 3.247966
2008-06-03 12:33:16 51°12.088 2°47.328 16.3293 4.053992 31.63438 3.352439
2008-06-03 12:34:16 51°12.171 2°47.669 16.3402 4.049635 31.575262 3.317614
2008-06-03 12:35:16 51°12.283 2°47.993 16.3748 4.04559 31.529837 3.909623
2008-06-03 12:36:16 51°12.393 2°48.321 16.379 4.044137 31.489038 3.909623
2008-06-03 12:37:16 51°12.495 2°48.655 16.3614 4.04476 31.49572 3.944447
2008-06-03 12:38:16 51°12.598 2°48.985 16.369 4.041026 31.475465 4.431984
2008-06-03 12:39:16 51°12.715 2°49.302 16.3738 4.036773 31.432795 4.57128
2008-06-03 12:40:16 51°12.827 2°49.623 16.3772 4.034906 31.416592 4.745401
2008-06-03 12:41:16 51°12.93 2°49.95 16.3945 4.030861 31.373201 5.128465
2008-06-03 12:42:16 51°13.037 2°50.276 16.4299 4.025883 31.316656 5.33741
2008-06-03 12:43:16 51°13.148 2°50.606 16.4575 4.02806 31.29931 5.232937
2008-06-03 12:44:16 51°13.255 2°50.917 16.4736 4.024533 31.257364 5.929418
2008-06-03 12:45:16 51°13.335 2°51.145 16.4478 4.01997 31.216603 6.80002
2008-06-03 12:46:16 51°13.397 2°51.282 16.4603 4.01634 31.191516 6.033891
2008-06-03 12:47:16 51°13.444 2°51.395 16.4576 4.014577 31.168043 6.382131
2008-06-03 12:48:16 51°13.476 2°51.471 16.4586 4.010947 31.13538 7.008964
2008-06-03 12:49:16 51°13.489 2°51.514 16.4685 4.009598 31.12498 7.078612
2008-06-03 12:50:16 51°13.503 2°51.558 16.4616 4.009287 31.122289 7.113436
2008-06-03 12:51:16 51°13.516 2°51.603 16.4644 4.008043 31.119724 6.904492
2008-06-03 12:52:16 51°13.529 2°51.648 16.4771 4.00825 31.118995 6.834844
2008-06-03 12:53:16 51°13.55 2°51.699 16.4909 4.009909 31.120103 6.521427
2008-06-03 12:54:16 51°13.625 2°51.873 16.4937 4.010843 31.120608 6.451779
2008-06-03 12:55:16 51°13.747 2°52.17 16.6834 0.101486 0.604399 -1.557753
2008-06-03 12:56:16 51°13.879 2°52.469 16.762 0.063408 0.371038 -1.627401
2008-06-03 12:57:16 51°14.01 2°52.772 16.8564 0.05219 0.303493 -1.627401
2008-06-03 12:58:16 51°14.117 2°53.054 16.9808 0.047559 0.275788 -1.627401
2008-06-03 12:59:16 51°14.16 2°53.242 17.0589 0.04509 0.26084 -1.627401
2008-06-03 13:00:16 51°14.204 2°53.411 17.1461 0.042928 0.248014 -1.592577
2008-06-03 13:01:16 51°14.247 2°53.582 17.2337 0.042002 0.242378 -1.627401
2008-06-03 13:02:16 51°14.299 2°53.823 17.3245 0.039121 0.225318 -1.592577
2008-06-03 13:03:16 51°14.355 2°54.137 17.4074 0.037474 0.215556 -1.592577
2008-06-03 13:04:16 51°14.408 2°54.469 17.4848 0.037268 0.214249 -1.627401
2008-06-03 13:05:16 51°14.426 2°54.798 17.5406 0.03449 0.197915 -1.592577
2008-06-03 13:06:16 51°14.353 2°55.071 17.6215 0.038709 0.22268 -1.592577
2008-06-03 13:07:17 51°14.239 2°55.281 17.6485 0.035004 0.200911 -1.627401